Date,TemperatureHighF,TemperatureAvgF,TemperatureLowF,DewpointHighF,DewpointAvgF,DewpointLowF,HumidityHigh,HumidityAvg,HumidityLow,PressureMaxIn,PressureMinIn,WindSpeedMaxMPH,WindSpeedAvgMPH,GustSpeedMaxMPH,PrecipitationSumIn
2014-1-1,59.5,48.2,30.7,17.0,12.8,8.0,53,26,15,30.27,30.19,13,4,19,0.00
2014-1-2,59.5,48.4,36.8,24.0,20.4,16.0,56,34,24,30.25,30.12,8,2,14,0.00
2014-1-3,64.4,47.3,31.0,27.0,23.4,18.0,70,43,22,30.14,29.99,6,2,11,0.00
2014-1-4,66.9,53.4,44.2,28.0,24.7,21.0,45,34,18,30.09,29.94,14,3,17,0.00
2014-1-5,54.9,47.6,39.4,24.0,10.7,1.0,42,24,12,30.32,30.09,16,7,19,0.00
2014-1-6,54.2,45.4,31.7,10.0,3.8,0.0,41,18,13,30.39,30.25,15,7,19,0.00
2014-1-7,64.0,49.1,29.3,21.0,14.3,7.0,49,27,14,30.25,30.10,14,4,20,0.00
2014-1-8,62.2,53.6,49.0,35.0,24.7,11.0,50,34,14,30.12,30.00,18,7,29,0.00
2014-1-9,55.7,48.8,44.3,33.0,26.9,12.0,65,44,18,30.12,30.00,24,8,33,0.00
2014-1-10,68.5,56.3,40.8,33.0,28.5,22.0,58,36,17,30.18,30.07,21,7,31,0.00
2014-1-11,69.7,52.2,33.7,36.0,28.9,17.0,72,44,17,30.21,30.09,16,4,24,0.00
2014-1-12,53.1,46.4,41.8,38.0,32.8,28.0,79,61,39,30.34,30.09,39,10,40,0.00
2014-1-13,56.8,48.7,40.2,31.0,18.7,15.0,60,32,20,30.51,30.34,15,9,20,0.00
2014-1-14,62.3,53.3,45.4,17.0,13.6,9.0,30,21,14,30.49,30.37,16,9,21,0.00
2014-1-15,63.2,55.8,49.9,17.0,12.0,9.0,20,18,15,30.40,30.25,17,9,18,0.00
2014-1-16,64.8,55.6,49.0,11.0,6.5,1.0,19,14,8,30.29,30.18,17,9,22,0.00
2014-1-17,63.2,52.3,36.0,11.0,5.2,-1.0,35,16,11,30.25,30.14,13,6,17,0.00
2014-1-18,62.5,46.3,28.7,12.0,7.6,4.0,48,23,10,30.28,30.18,12,4,14,0.00
2014-1-19,66.2,46.6,31.9,14.0,9.6,7.0,44,25,11,30.27,30.16,7,2,10,0.00
2014-1-20,61.4,48.4,30.4,15.0,10.7,8.0,46,24,13,30.35,30.20,10,3,12,0.00
2014-1-21,60.5,50.2,39.7,17.0,11.0,9.0,33,21,14,30.34,30.18,12,3,14,0.00
2014-1-22,67.3,52.6,38.1,18.0,10.6,5.0,37,20,9,30.18,29.94,8,2,11,0.00
2014-1-23,58.9,47.5,31.1,16.0,12.5,3.0,54,26,16,30.24,29.93,16,5,18,0.00
2014-1-24,57.1,51.2,46.0,19.0,16.9,14.0,29,26,22,30.35,30.24,8,4,18,0.00
2014-1-25,61.5,51.2,36.9,18.0,15.9,13.0,47,26,16,30.29,30.16,12,2,15,0.00
2014-1-26,62.6,50.5,35.9,34.0,24.5,15.0,56,37,25,30.17,30.04,13,3,19,0.00
2014-1-27,63.5,52.1,36.8,32.0,21.3,16.0,65,33,18,30.13,30.03,17,4,22,0.00
2014-1-28,66.0,55.6,41.2,28.0,21.8,15.0,43,27,18,30.16,30.07,20,5,26,0.00
2014-1-29,69.4,58.5,42.4,44.0,37.1,27.0,58,46,34,30.13,29.88,18,6,34,0.00
2014-1-30,57.5,48.8,43.9,46.0,40.7,33.0,96,76,48,29.88,29.78,24,9,28,0.23
2014-1-31,43.9,40.7,35.2,43.0,34.8,28.0,96,80,66,30.05,29.83,19,6,31,0.04
2014-2-1,47.2,38.7,29.7,29.0,22.7,11.0,75,55,23,30.15,30.02,14,5,17,0.00
2014-2-2,47.1,36.1,23.9,31.0,23.7,15.0,84,64,29,30.14,29.96,21,6,35,0.00
2014-2-3,43.1,37.4,30.1,32.0,29.4,27.0,91,73,58,30.05,29.95,22,6,31,0.00
2014-2-4,50.3,41.5,32.7,34.0,27.3,23.0,74,59,40,30.11,30.01,14,5,25,0.00
2014-2-5,54.2,41.6,33.1,29.0,17.7,-7.0,72,44,12,30.18,30.05,16,5,26,0.00
2014-2-6,44.4,41.5,38.8,40.0,34.1,6.0,95,79,21,30.07,29.93,22,8,32,0.10
2014-2-7,49.2,42.8,35.0,41.0,39.2,34.0,96,87,70,30.18,30.05,30,8,35,0.01
2014-2-8,57.6,47.3,40.1,45.0,41.1,38.0,93,80,58,30.27,30.18,19,8,31,0.00
2014-2-9,56.6,48.1,41.2,46.0,42.3,33.0,95,82,46,30.22,30.08,15,6,26,0.00
2014-2-10,55.8,51.7,45.7,45.0,41.9,38.0,86,70,53,30.18,30.06,32,9,38,0.00
2014-2-11,64.8,51.7,37.4,43.0,29.3,6.0,90,50,13,30.19,30.09,14,4,25,0.00
2014-2-12,76.9,57.5,36.7,25.0,12.2,-28.0,53,22,2,30.23,30.10,16,4,23,0.00
2014-2-13,77.4,65.9,60.2,22.0,12.0,-20.0,19,13,3,30.12,29.99,24,6,28,0.00
2014-2-14,76.2,66.4,57.9,22.0,14.0,8.0,23,14,8,30.06,29.99,13,5,26,0.00
2014-2-15,74.9,55.9,42.3,27.0,16.1,-99.9,45,24,12,30.04,29.95,9,-31,20,0.00
2014-2-16,66.9,56.5,45.4,35.0,24.3,14.0,42,29,17,30.08,29.97,19,4,27,0.00
2014-2-17,67.3,53.9,36.1,39.0,32.8,24.0,80,47,24,30.08,29.97,13,4,25,0.00
2014-2-18,67.5,53.5,35.6,36.0,24.5,9.0,74,37,15,30.09,29.98,12,2,20,0.00
2014-2-19,57.1,50.4,46.3,39.0,30.3,17.0,70,48,26,30.05,29.93,29,10,40,0.00
2014-2-20,61.9,48.8,36.5,39.0,27.7,18.0,77,49,21,30.20,30.05,16,5,32,0.00
2014-2-21,67.2,50.3,32.0,25.0,20.0,17.0,64,34,16,30.12,29.96,9,3,16,0.00
2014-2-22,66.9,54.6,44.3,29.0,24.2,18.0,50,32,20,29.96,29.86,8,2,10,0.00
2014-2-23,69.0,54.1,39.7,32.0,26.8,23.0,58,39,18,30.00,29.92,12,2,16,0.00
2014-2-24,70.2,54.0,36.3,36.0,28.9,23.0,68,41,20,30.02,29.92,10,3,17,0.00
2014-2-25,66.8,53.1,41.1,41.0,32.1,25.0,83,49,24,30.00,29.91,17,5,22,0.00
2014-2-26,49.5,46.4,44.0,46.0,42.3,39.0,95,86,74,30.02,29.94,25,9,32,0.33
2014-2-27,56.8,49.3,44.5,47.0,42.8,35.0,96,80,50,30.02,29.82,24,9,31,0.51
2014-2-28,51.1,44.2,39.9,50.0,42.6,39.0,97,94,76,29.83,29.56,27,9,47,4.34
2014-3-1,45.5,42.4,40.1,43.0,40.9,39.0,97,94,88,29.98,29.70,22,7,41,1.39
2014-3-2,46.7,44.0,40.1,45.0,42.3,39.0,96,94,90,30.19,29.98,14,6,21,0.07
2014-3-3,59.0,48.3,39.0,45.0,41.7,38.0,96,79,56,30.19,30.06,9,2,15,0.01
2014-3-4,60.9,52.1,44.8,45.0,39.7,35.0,78,64,47,30.08,29.99,23,5,32,0.00
2014-3-5,70.1,54.6,37.9,45.0,38.8,31.0,90,60,24,30.14,30.03,10,3,16,0.00
2014-3-6,63.7,55.7,47.7,49.0,43.4,33.0,75,64,50,30.07,29.95,36,7,40,0.00
2014-3-7,64.2,53.4,43.8,36.0,30.3,24.0,75,45,22,30.08,29.97,27,8,41,0.00
2014-3-8,65.6,55.0,45.4,30.0,25.0,21.0,46,33,20,30.23,30.08,18,8,24,0.00
2014-3-9,68.4,56.7,45.0,33.0,24.3,20.0,46,30,17,30.26,30.11,14,3,17,0.00
2014-3-10,67.5,56.0,45.3,43.0,31.4,23.0,72,41,20,30.12,30.00,19,5,37,0.00
2014-3-11,64.5,53.6,40.7,43.0,28.5,15.0,73,42,22,30.08,29.99,14,6,31,0.00
2014-3-12,59.3,50.8,42.4,23.0,18.6,13.0,35,28,22,30.15,30.00,14,6,25,0.00
2014-3-13,63.4,50.8,34.4,26.0,21.7,17.0,65,35,18,30.05,29.95,13,5,22,0.00
2014-3-14,70.3,59.3,51.1,25.0,15.4,-9.0,34,20,4,30.11,30.03,18,8,31,0.00
2014-3-15,70.2,59.8,45.8,33.0,27.9,19.0,48,31,19,30.29,30.11,17,6,28,0.00
2014-3-16,78.2,60.0,39.9,35.0,28.1,17.0,73,35,12,30.33,30.12,11,3,14,0.00
2014-3-17,66.4,58.2,49.4,40.0,28.6,14.0,66,35,13,30.12,29.78,25,9,40,0.00
2014-3-18,61.6,52.0,44.1,38.0,21.9,9.0,68,36,14,30.01,29.80,17,6,30,0.00
2014-3-19,65.6,52.4,41.4,30.0,12.9,7.0,53,22,12,30.15,30.02,12,4,15,0.00
2014-3-20,69.0,54.1,39.5,41.0,30.5,23.0,69,45,18,30.09,29.91,13,4,21,0.00
2014-3-21,61.3,52.2,43.9,44.0,40.1,36.0,90,65,45,29.95,29.88,21,7,27,0.00
2014-3-22,65.3,52.2,43.3,46.0,43.2,36.0,91,74,47,30.07,29.93,19,8,23,0.00
2014-3-23,70.7,56.8,38.0,39.0,31.1,26.0,88,43,20,30.12,30.01,11,3,18,0.00
2014-3-24,74.9,58.0,39.7,42.0,30.4,17.0,75,41,12,30.10,29.98,8,3,18,0.00
2014-3-25,70.3,55.8,42.4,46.0,35.6,24.0,87,52,18,30.00,29.77,22,8,28,0.00
2014-3-26,49.9,45.3,41.6,43.0,41.4,38.0,93,86,68,29.96,29.78,12,5,20,0.59
2014-3-27,53.0,46.3,41.6,39.0,35.2,34.0,88,66,51,30.12,29.96,18,6,28,0.00
2014-3-28,68.9,53.8,41.3,39.0,33.3,24.0,74,49,22,30.18,30.07,15,3,22,0.00
2014-3-29,69.5,55.3,42.4,43.0,36.4,31.0,76,52,25,30.14,29.91,14,4,25,0.00
2014-3-30,53.6,45.6,39.6,43.0,33.1,19.0,90,64,35,30.07,29.89,19,7,29,0.01
2014-3-31,55.9,45.1,35.1,38.0,30.9,20.0,88,59,41,30.05,29.89,21,8,33,0.08
2014-4-1,46.9,40.3,34.5,39.0,35.5,29.0,92,83,53,29.98,29.92,15,4,22,0.60
2014-4-2,48.3,41.2,34.6,35.0,32.6,30.0,93,73,53,30.11,29.93,15,5,27,0.05
2014-4-3,58.8,46.2,30.6,41.0,32.2,25.0,83,61,30,30.17,30.05,17,4,23,0.00
2014-4-4,56.4,47.8,42.4,37.0,33.0,24.0,74,59,33,30.05,29.90,17,6,24,0.00
2014-4-5,50.9,45.0,38.8,38.0,35.8,34.0,89,71,56,30.13,29.91,32,11,36,0.00
2014-4-6,69.8,55.5,37.1,37.0,32.4,27.0,81,45,22,30.22,30.07,15,5,20,0.00
2014-4-7,77.3,59.4,39.8,36.0,33.6,30.0,78,43,18,30.21,30.09,14,3,18,0.00
2014-4-8,80.2,63.2,41.2,41.0,30.7,17.0,81,37,10,30.15,30.02,12,4,20,0.00
2014-4-9,81.5,64.3,51.0,28.0,17.9,7.0,40,20,7,30.06,29.93,16,3,21,0.00
2014-4-10,78.7,63.6,46.8,28.0,18.0,0.0,38,20,7,29.99,29.88,14,6,20,0.00
2014-4-11,74.8,63.6,54.0,34.0,17.1,1.0,34,18,8,29.92,29.75,20,7,27,0.00
2014-4-12,61.6,52.3,45.9,44.0,36.3,-99.9,88,58,33,29.88,29.76,23,1,32,0.00
2014-4-13,71.7,55.3,43.5,47.0,42.7,33.0,92,68,26,29.98,29.87,20,10,36,0.00
2014-4-14,73.7,59.6,46.0,44.0,27.6,14.0,90,37,12,30.14,29.99,18,5,20,0.00
2014-4-15,73.0,64.2,49.9,40.0,34.2,26.0,50,34,22,30.05,29.80,15,5,25,0.00
2014-4-16,77.9,66.5,58.3,41.0,31.1,19.0,50,29,13,29.80,29.69,17,5,23,0.00
2014-4-17,74.1,61.2,49.8,49.0,41.9,32.0,93,52,29,29.82,29.74,15,5,24,0.00
2014-4-18,66.9,55.9,48.4,50.0,47.5,44.0,94,75,44,29.91,29.77,20,9,24,0.00
2014-4-19,74.4,61.4,48.5,49.0,43.9,38.0,83,55,37,29.99,29.89,20,5,30,0.00
2014-4-20,77.7,65.4,53.6,48.0,36.5,18.0,60,36,21,30.02,29.93,15,4,28,0.00
2014-4-21,76.7,62.8,46.1,47.0,35.2,21.0,56,37,22,30.01,29.89,19,6,29,0.00
2014-4-22,58.2,53.5,47.5,41.0,32.9,22.0,69,47,33,29.96,29.83,23,8,34,0.00
2014-4-23,67.3,51.8,40.9,31.0,27.0,21.0,63,41,18,30.01,29.91,26,7,36,0.00
2014-4-24,75.0,60.4,48.0,37.0,31.3,21.0,51,35,20,30.00,29.87,16,6,22,0.00
2014-4-25,59.7,52.8,37.9,44.0,39.0,34.0,88,61,45,29.86,29.70,23,9,36,0.06
2014-4-26,49.8,42.4,34.8,37.0,33.8,31.0,89,72,56,30.02,29.69,21,7,39,0.04
2014-4-27,58.7,49.8,39.9,36.0,32.9,28.0,77,54,32,30.07,29.97,43,8,43,0.00
2014-4-28,67.3,55.4,44.8,39.0,36.4,32.0,77,51,31,30.10,30.01,26,8,32,0.00
2014-4-29,74.7,61.3,44.3,38.0,24.2,12.0,77,30,9,30.21,30.08,21,6,31,0.00
2014-4-30,74.3,63.1,51.0,23.0,13.3,8.0,29,15,8,30.18,30.03,27,10,29,0.00
2014-5-1,80.3,67.2,54.7,34.0,17.7,9.0,28,16,8,30.14,30.00,16,7,23,0.00
2014-5-2,87.3,74.9,65.6,40.0,29.5,14.0,37,20,10,30.02,29.87,13,6,23,0.00
2014-5-3,82.3,71.8,60.1,36.0,27.5,20.0,40,20,10,29.90,29.80,17,5,23,0.00
2014-5-4,76.1,66.7,56.4,38.0,31.2,19.0,44,29,13,29.88,29.82,22,9,29,0.00
2014-5-5,65.0,56.4,48.0,46.0,38.4,28.0,80,53,32,29.90,29.80,21,9,31,0.00
2014-5-6,54.2,47.8,40.6,42.0,35.1,27.0,83,63,38,29.86,29.79,21,8,31,0.00
2014-5-7,60.8,52.7,46.2,43.0,38.7,34.0,77,60,38,29.95,29.84,20,8,27,0.00
2014-5-8,68.2,54.9,42.6,45.0,42.0,39.0,90,65,42,30.04,29.93,19,7,23,0.00
2014-5-9,60.5,54.7,51.3,46.0,41.6,37.0,72,62,50,30.04,29.93,16,6,28,0.00
2014-5-10,61.6,55.7,51.1,32.0,29.6,27.0,42,37,28,29.88,29.80,25,8,40,0.00
2014-5-11,68.3,55.9,40.7,32.0,24.8,8.0,69,34,10,30.03,29.89,17,6,29,0.00
2014-5-12,76.4,62.0,38.8,30.0,21.0,15.0,58,23,10,30.14,30.00,12,4,17,0.00
2014-5-13,78.0,64.7,42.9,30.0,20.2,8.0,61,21,8,30.19,30.06,18,6,22,0.00
2014-5-14,82.5,69.5,57.5,23.0,16.8,9.0,24,14,9,30.15,30.02,16,7,29,0.00
2014-5-15,90.7,70.4,46.1,38.0,25.3,17.0,51,22,7,30.10,29.96,11,3,17,0.00
2014-5-16,85.9,77.1,67.9,38.0,29.8,25.0,28,18,12,30.00,29.83,15,7,28,0.00
2014-5-17,84.2,74.2,62.6,40.0,31.5,20.0,37,21,14,29.86,29.73,15,5,22,0.00
2014-5-18,74.2,64.1,57.5,47.0,37.7,24.0,62,39,24,29.81,29.74,24,8,34,0.00
2014-5-19,66.9,58.2,50.2,48.0,42.2,36.0,80,56,42,29.86,29.79,22,9,29,0.00
2014-5-20,55.9,48.7,45.6,44.0,39.8,-99.9,85,74,55,29.95,29.86,14,-10,21,0.14
2014-5-21,62.7,54.4,43.2,47.0,43.3,37.0,85,67,52,29.97,29.90,21,6,25,0.14
2014-5-22,69.3,54.6,43.8,49.0,46.1,39.0,94,75,33,30.01,29.90,19,4,28,0.11
2014-5-23,75.3,59.7,47.2,52.0,46.3,39.0,95,68,28,29.97,29.90,19,7,30,0.01
2014-5-24,74.0,60.3,50.0,53.0,50.7,47.0,92,73,47,29.94,29.83,22,11,26,0.00
2014-5-25,90.0,70.9,51.4,53.0,47.8,39.0,94,51,18,29.93,29.82,11,5,22,0.00
2014-5-26,85.7,72.9,57.6,54.0,50.3,42.0,76,48,29,29.88,29.82,15,6,21,0.00
2014-5-27,87.4,73.7,58.6,47.0,42.2,34.0,62,35,16,29.89,29.82,18,6,26,0.00
2014-5-28,82.6,71.3,62.2,48.0,32.4,26.0,47,24,15,29.84,29.74,16,5,23,0.00
2014-5-29,79.5,66.3,50.8,48.0,33.4,20.0,53,31,16,29.85,29.78,14,6,24,0.00
2014-5-30,83.2,67.6,49.8,38.0,31.2,21.0,56,28,14,29.86,29.80,16,4,21,0.00
2014-5-31,82.0,68.3,51.9,37.0,30.2,22.0,42,26,13,29.84,29.80,17,4,25,0.00
2014-6-1,83.4,69.9,53.9,45.0,30.0,23.0,32,23,13,29.84,29.74,19,7,28,0.00
2014-6-2,79.7,67.5,56.0,31.0,23.4,16.0,32,20,11,29.82,29.76,21,8,29,0.00
2014-6-3,81.6,66.9,49.6,33.0,23.6,16.0,34,20,12,29.86,29.77,20,6,26,0.00
2014-6-4,83.4,69.6,55.9,38.0,32.2,22.0,37,26,16,29.81,29.73,15,5,24,0.00
2014-6-5,85.6,72.7,60.9,43.0,36.4,27.0,45,27,18,29.77,29.69,16,6,23,0.00
2014-6-6,79.8,69.2,60.0,50.0,44.7,38.0,66,43,29,29.73,29.68,21,8,27,0.00
2014-6-7,87.5,73.0,54.4,52.0,45.0,34.0,76,42,19,29.74,29.68,22,8,30,0.00
2014-6-8,78.0,75.2,70.1,40.0,38.5,35.0,31,27,21,29.70,29.66,14,7,29,0.00
2014-6-10,72.0,64.7,60.1,54.0,52.7,50.0,75,66,46,29.74,29.66,24,16,34,0.00
2014-6-11,78.3,65.2,51.8,52.0,47.1,37.0,90,56,32,29.85,29.73,23,12,30,0.00
2014-6-12,79.7,69.0,60.0,51.0,41.6,31.0,61,38,20,29.86,29.80,18,11,26,0.00
2014-6-13,77.6,66.3,53.6,49.0,41.8,32.0,72,43,25,29.84,29.79,17,7,24,0.00
2014-6-14,85.4,71.2,59.7,46.0,32.6,21.0,60,27,10,29.82,29.73,21,5,28,0.00
2014-6-15,74.0,63.1,51.3,48.0,44.8,38.0,86,55,28,29.78,29.71,21,9,34,0.00
2014-6-16,70.5,59.4,49.1,48.0,46.0,40.0,92,64,34,29.84,29.76,22,13,34,0.00
2014-6-17,70.4,59.6,50.1,50.0,45.8,41.0,80,62,46,29.86,29.81,21,9,31,0.00
2014-6-18,81.9,66.8,53.1,51.0,39.0,26.0,74,40,13,29.91,29.83,14,6,23,0.00
2014-6-19,88.4,75.1,59.1,48.0,33.4,28.0,66,23,12,29.91,29.84,15,4,20,0.00
2014-6-20,89.9,78.6,68.7,40.0,33.1,23.0,32,20,10,29.86,29.77,17,5,21,0.00
2014-6-21,85.0,75.9,65.3,53.0,38.7,24.0,53,28,16,29.78,29.71,28,9,30,0.00
2014-6-22,82.5,70.3,58.2,50.0,42.4,24.0,62,39,18,29.82,29.75,22,9,27,0.00
2014-6-23,79.8,67.7,54.9,54.0,48.6,44.0,71,52,37,29.86,29.78,24,10,27,0.00
2014-6-24,85.8,76.2,61.3,52.0,40.4,34.0,65,29,17,29.85,29.78,26,6,29,0.00
2014-6-25,84.2,75.4,66.8,45.0,41.1,38.0,43,30,19,29.81,29.73,24,8,33,0.00
2014-6-26,79.5,70.5,61.9,55.0,49.5,45.0,59,48,36,29.80,29.72,20,6,28,0.00
2014-6-27,85.2,71.6,60.2,48.0,41.5,32.0,58,36,20,29.79,29.72,25,9,36,0.00
2014-6-28,88.7,76.3,66.3,54.0,46.2,29.0,54,36,15,29.78,29.72,18,7,27,0.00
2014-6-29,92.9,77.8,63.3,56.0,48.4,41.0,61,37,18,29.79,29.71,15,6,23,0.00
2014-6-30,88.9,75.7,60.0,57.0,53.3,47.0,76,49,28,29.78,29.71,21,8,25,0.00
2014-7-1,88.0,76.1,62.2,55.0,50.3,41.0,65,43,26,29.76,29.70,19,7,28,0.00
2014-7-2,88.0,75.5,60.2,53.0,46.4,38.0,67,39,18,29.80,29.72,22,8,29,0.00
2014-7-3,91.5,78.1,65.6,49.0,40.2,31.0,50,27,13,29.84,29.76,18,7,25,0.00
2014-7-4,87.6,76.5,59.2,57.0,48.7,37.0,53,38,28,29.93,29.84,23,7,28,0.00
2014-7-5,89.3,78.3,69.0,52.0,43.9,35.0,38,30,21,29.95,29.88,22,10,26,0.00
2014-7-6,92.4,78.7,66.9,49.0,43.0,37.0,41,29,19,29.94,29.82,14,6,18,0.00
2014-7-7,91.8,79.0,66.6,54.0,47.2,41.0,54,34,20,29.83,29.74,15,8,22,0.00
2014-7-8,89.1,77.1,64.6,52.0,47.6,43.0,54,37,21,29.85,29.77,23,9,26,0.00
2014-7-9,87.4,75.3,63.8,55.0,48.1,41.0,56,39,27,29.86,29.77,23,12,26,0.00
2014-7-10,82.4,71.9,61.9,49.0,45.9,39.0,61,41,28,29.86,29.79,24,10,27,0.00
2014-7-11,81.8,71.4,60.4,52.0,45.6,37.0,60,41,27,29.91,29.85,18,9,24,0.00
2014-7-12,93.5,76.5,60.7,53.0,48.4,38.0,61,40,15,29.93,29.83,15,4,20,0.00
2014-7-13,98.2,83.1,63.5,55.0,50.0,46.0,55,34,18,29.86,29.74,22,5,25,0.00
2014-7-14,86.5,77.4,69.1,60.0,55.7,51.0,73,48,35,29.87,29.77,19,9,25,0.00
2014-7-15,84.1,72.4,62.2,61.0,58.9,55.0,85,65,43,29.93,29.85,19,9,28,0.00
2014-7-16,79.7,67.3,56.8,59.0,53.5,41.0,95,66,25,29.94,29.86,20,9,29,0.00
2014-7-17,75.1,64.7,55.4,53.0,50.1,44.0,83,61,36,29.93,29.85,26,13,32,0.00
2014-7-18,79.4,66.0,53.4,55.0,51.3,48.0,86,61,37,29.95,29.86,21,11,27,0.00
2014-7-19,81.1,70.3,60.4,56.0,48.7,40.0,83,49,29,29.92,29.85,13,4,19,0.00
2014-7-20,77.2,67.0,55.5,58.0,56.0,52.0,91,70,49,29.93,29.85,23,9,28,0.00
2014-7-21,81.8,70.8,60.5,55.0,51.5,44.0,78,53,32,29.98,29.91,20,8,24,0.00
2014-7-22,85.9,73.0,58.0,53.0,47.9,38.0,74,45,22,29.99,29.93,19,5,24,0.00
2014-7-23,93.9,77.3,59.5,49.0,44.9,40.0,61,35,18,29.97,29.83,13,4,19,0.00
2014-7-24,97.4,80.4,62.3,47.0,40.6,29.0,49,27,9,29.85,29.69,15,4,19,0.00
2014-7-25,90.3,79.2,71.6,55.0,46.0,37.0,49,32,16,29.84,29.73,26,11,31,0.00
2014-7-26,90.8,78.9,67.6,50.0,46.0,37.0,53,33,18,29.89,29.81,20,8,27,0.00
2014-7-27,86.3,78.1,70.4,47.0,42.9,37.0,39,29,19,29.91,29.84,20,8,28,0.00
2014-7-28,90.9,79.4,69.8,50.0,42.1,35.0,38,27,17,29.99,29.91,11,4,18,0.00
2014-7-29,93.2,81.1,69.2,49.0,45.7,43.0,40,30,18,29.97,29.85,12,3,21,0.00
2014-7-30,94.4,84.9,76.9,52.0,48.7,45.0,34,29,22,29.86,29.80,13,6,22,0.00
2014-7-31,96.6,84.9,74.2,53.0,49.8,47.0,41,30,21,29.84,29.74,18,4,22,0.00
2014-8-1,94.3,82.3,69.4,57.0,51.7,45.0,51,36,22,29.80,29.74,16,5,23,0.00
2014-8-2,87.0,77.7,68.0,57.0,52.5,48.0,57,42,26,29.88,29.76,18,6,29,0.00
2014-8-3,75.0,68.0,64.1,61.0,57.4,55.0,84,69,56,29.93,29.82,13,4,19,0.04
2014-8-4,81.7,70.5,61.5,58.0,46.9,29.0,82,49,17,29.95,29.88,21,10,28,0.00
2014-8-5,84.2,71.7,61.7,44.0,34.7,26.0,39,26,19,29.96,29.90,18,8,23,0.00
2014-8-6,81.3,69.2,57.7,49.0,43.8,37.0,52,41,31,29.95,29.86,16,8,23,0.00
2014-8-7,84.5,70.9,59.0,53.0,46.6,35.0,64,43,27,29.91,29.80,18,7,22,0.00
2014-8-8,88.9,74.7,59.8,54.0,48.7,37.0,73,45,20,29.86,29.79,17,6,21,0.00
2014-8-9,88.6,75.0,59.2,52.0,47.8,37.0,70,42,18,29.88,29.82,16,5,23,0.00
2014-8-10,88.5,75.1,58.2,54.0,46.4,39.0,53,38,18,29.92,29.83,21,5,25,0.00
2014-8-11,89.4,77.1,63.4,53.0,47.5,38.0,53,37,21,29.89,29.82,13,4,22,0.00
2014-8-12,89.0,77.1,64.4,56.0,50.8,46.0,62,42,26,29.88,29.78,16,4,22,0.00
2014-8-13,83.8,71.8,57.6,56.0,52.6,48.0,79,53,29,29.88,29.82,21,6,26,0.00
2014-8-14,82.8,73.7,62.5,54.0,43.0,25.0,72,38,13,29.90,29.85,15,7,26,0.00
2014-8-15,87.5,75.6,60.9,51.0,44.8,38.0,46,34,23,29.95,29.85,16,6,27,0.00
2014-8-16,89.7,76.9,61.2,49.0,45.2,41.0,51,34,22,29.95,29.85,15,5,21,0.00
2014-8-17,92.3,80.3,62.4,49.0,39.7,26.0,38,25,13,29.89,29.77,12,5,20,0.00
2014-8-18,88.8,77.9,64.9,50.0,40.0,34.0,43,26,17,29.78,29.68,18,6,24,0.00
2014-8-19,77.0,67.3,59.4,56.0,49.9,42.0,82,55,38,29.80,29.71,22,10,29,0.00
2014-8-20,79.4,66.1,53.1,54.0,47.4,37.0,94,57,25,29.90,29.80,17,7,24,0.00
2014-8-21,84.5,71.4,56.7,56.0,50.7,45.0,68,50,31,29.91,29.82,16,4,21,0.00
2014-8-22,80.3,70.3,59.0,57.0,54.2,49.0,76,58,43,29.90,29.83,18,8,29,0.00
2014-8-23,79.7,68.8,57.5,51.0,41.0,31.0,61,38,23,29.89,29.78,19,10,27,0.00
2014-8-24,81.0,68.5,56.6,51.0,41.0,31.0,60,39,21,29.85,29.75,20,9,28,0.00
2014-8-25,74.9,67.0,58.7,53.0,43.5,33.0,68,46,22,29.86,29.77,27,11,39,0.00
2014-8-26,80.4,69.7,60.6,54.0,48.0,36.0,75,49,29,29.96,29.86,23,9,29,0.00
2014-8-27,87.1,72.9,56.7,48.0,41.9,35.0,46,34,23,30.02,29.93,15,5,22,0.00
2014-8-28,93.5,78.7,61.1,51.0,45.7,41.0,53,33,18,30.00,29.82,19,3,20,0.00
2014-8-29,93.0,78.3,59.0,47.0,40.6,34.0,51,28,15,29.83,29.73,16,4,21,0.00
2014-8-30,90.4,80.8,73.8,42.0,36.1,25.0,31,21,13,29.76,29.68,19,7,37,0.00
2014-8-31,88.6,78.8,70.6,42.0,34.3,24.0,33,21,10,29.76,29.69,21,7,26,0.00
2014-9-1,87.6,75.4,63.3,54.0,45.1,31.0,49,35,22,29.76,29.70,20,7,26,0.00
2014-9-2,87.9,75.4,64.5,48.0,41.1,32.0,45,31,14,29.77,29.68,16,7,27,0.00
2014-9-3,83.7,73.4,65.1,53.0,44.7,38.0,50,37,23,29.71,29.61,21,10,25,0.00
2014-9-4,82.3,70.8,61.4,55.0,46.5,41.0,67,44,25,29.74,29.62,23,9,25,0.00
2014-9-5,88.1,74.7,59.3,47.0,36.7,27.0,60,27,11,29.84,29.74,16,5,24,0.00
2014-9-6,89.9,75.5,58.4,55.0,39.9,28.0,52,29,14,29.89,29.76,16,4,23,0.00
2014-9-7,90.5,78.7,64.5,59.0,39.5,21.0,35,25,10,29.81,29.67,15,4,23,0.00
2014-9-8,80.2,73.1,63.8,52.0,39.9,31.0,52,31,19,29.83,29.72,23,7,26,0.00
2014-9-9,85.7,71.2,55.1,39.0,31.2,22.0,50,25,10,29.90,29.82,15,3,19,0.00
2014-9-10,89.9,72.9,51.0,43.0,30.2,16.0,43,22,11,29.91,29.79,10,2,15,0.00
2014-9-11,92.7,75.4,61.3,51.0,40.2,28.0,53,30,10,29.86,29.74,10,2,17,0.00
2014-9-12,94.1,78.7,60.7,45.0,39.2,33.0,45,26,14,29.82,29.71,11,2,16,0.00
2014-9-13,94.6,79.1,57.7,47.0,40.8,34.0,47,27,16,29.79,29.68,13,3,20,0.00
2014-9-14,96.2,80.0,60.0,49.0,44.9,40.0,51,31,17,29.77,29.67,11,3,19,0.00
2014-9-15,97.3,81.0,62.4,52.0,48.6,45.0,55,34,19,29.79,29.70,13,4,20,0.00
2014-9-16,94.0,81.3,65.0,53.0,48.4,35.0,54,33,20,29.77,29.65,18,4,27,0.00
2014-9-17,90.6,78.0,67.4,59.0,48.1,35.0,50,35,21,29.72,29.63,19,4,21,0.00
2014-9-18,78.1,68.3,59.9,56.0,51.1,47.0,80,55,43,29.78,29.69,15,7,25,0.00
2014-9-19,78.3,65.4,54.8,57.0,54.5,52.0,92,70,43,29.84,29.77,14,5,19,0.00
2014-9-20,78.1,66.7,54.4,57.0,54.1,48.0,83,66,44,29.88,29.80,21,7,24,0.00
2014-9-21,80.8,67.1,56.7,55.0,51.6,47.0,88,61,33,29.93,29.86,15,5,23,0.00
2014-9-22,85.7,70.4,50.6,51.0,45.7,39.0,71,45,21,29.97,29.87,17,4,19,0.00
2014-9-23,86.1,72.3,54.0,44.0,34.1,16.0,50,28,8,29.94,29.85,15,4,21,0.00
2014-9-24,87.4,72.8,49.6,41.0,31.1,18.0,39,22,12,29.92,29.81,16,4,23,0.00
2014-9-25,82.0,72.9,59.7,55.0,44.0,26.0,76,38,18,29.89,29.77,20,5,31,0.00
2014-9-26,74.2,63.7,54.8,52.0,47.2,39.0,84,58,33,29.83,29.73,27,5,31,0.00
2014-9-27,63.4,56.7,50.3,46.0,40.5,35.0,74,56,36,29.85,29.77,23,6,32,0.00
2014-9-28,68.4,56.5,47.9,49.0,45.7,38.0,89,69,46,29.92,29.82,18,7,25,0.00
2014-9-29,72.7,60.6,49.7,48.0,43.4,38.0,87,56,30,29.97,29.88,15,5,20,0.00
2014-9-30,80.3,63.8,43.7,43.0,38.7,33.0,74,44,20,29.92,29.76,13,3,19,0.00
2014-10-1,80.0,68.0,55.8,47.0,40.1,27.0,66,39,20,29.92,29.73,13,5,21,0.00
2014-10-2,78.7,66.3,56.1,26.0,19.6,14.0,31,18,10,30.08,29.92,14,6,18,0.00
2014-10-3,84.1,69.1,54.8,20.0,16.4,14.0,21,14,8,30.13,30.02,10,4,19,0.00
2014-10-4,86.9,69.8,51.9,26.0,21.2,15.0,30,17,9,30.05,29.90,8,3,13,0.00
2014-10-5,88.6,67.8,46.3,34.0,24.2,21.0,41,22,10,30.00,29.89,9,3,14,0.00
2014-10-6,89.5,69.9,48.3,39.0,28.2,22.0,40,23,10,29.95,29.83,14,3,16,0.00
2014-10-7,85.1,71.8,58.4,36.0,30.1,24.0,30,22,13,29.88,29.78,15,4,22,0.00
2014-10-8,84.0,72.1,59.9,40.0,34.9,29.0,37,26,17,29.83,29.75,15,4,29,0.00
2014-10-9,79.3,72.2,60.1,40.0,34.0,29.0,48,26,17,29.86,29.79,22,7,31,0.00
2014-10-10,79.6,70.1,63.6,38.0,33.8,29.0,36,27,19,29.91,29.85,17,5,26,0.00
2014-10-11,84.8,68.7,48.1,48.0,35.3,28.0,51,31,13,29.98,29.88,14,4,17,0.00
2014-10-12,83.5,72.5,59.9,39.0,27.0,12.0,33,20,7,29.92,29.81,10,4,20,0.00
2014-10-13,81.0,67.5,49.5,20.0,16.3,13.0,26,14,9,30.04,29.92,11,4,17,0.00
2014-10-14,75.5,59.8,42.5,49.0,30.8,12.0,68,36,13,29.99,29.84,21,7,28,0.00
2014-10-15,66.6,57.5,52.2,51.0,48.7,46.0,86,73,55,29.95,29.88,31,10,31,0.00
2014-10-16,69.6,58.9,52.6,51.0,47.5,45.0,84,67,42,29.99,29.88,21,10,25,0.00
2014-10-17,65.8,56.8,46.5,51.0,48.3,40.0,89,74,49,29.95,29.88,21,9,28,0.00
2014-10-18,74.9,58.3,44.5,48.0,39.7,30.0,91,56,20,29.94,29.84,7,2,13,0.00
2014-10-19,79.9,61.3,42.7,50.0,41.6,33.0,72,52,26,29.92,29.82,12,3,15,0.00
2014-10-20,75.5,63.3,51.4,50.0,44.4,38.0,74,53,31,29.90,29.82,20,4,24,0.00
2014-10-21,74.9,60.2,50.4,49.0,38.1,20.0,80,49,21,29.91,29.82,25,7,34,0.00
2014-10-22,75.5,59.7,42.3,37.0,31.5,25.0,56,36,21,30.02,29.89,11,3,18,0.00
2014-10-23,81.0,63.3,41.9,42.0,31.8,26.0,60,35,14,30.06,29.95,14,5,23,0.00
2014-10-24,79.5,69.0,60.7,36.0,28.5,23.0,34,23,15,29.99,29.88,20,5,29,0.00
2014-10-25,72.7,64.7,54.7,45.0,34.4,25.0,69,34,19,29.99,29.93,23,6,32,0.00
2014-10-26,58.6,54.0,50.4,45.0,41.6,34.0,77,64,44,29.99,29.89,24,9,33,0.00
2014-10-27,68.0,53.9,38.6,40.0,33.8,28.0,78,50,25,30.00,29.91,13,4,32,0.00
2014-10-28,72.2,53.9,37.3,32.0,27.1,24.0,66,40,19,30.13,30.01,8,3,14,0.00
2014-10-29,75.2,57.3,39.5,27.0,23.9,21.0,53,30,14,30.15,30.04,10,4,15,0.00
2014-10-30,76.4,59.5,44.0,43.0,29.3,21.0,48,33,17,30.05,29.92,14,4,23,0.00
2014-10-31,56.7,56.7,56.7,37.0,37.0,37.0,48,48,48,29.94,29.94,0,0,1,0.00
2014-11-1,50.6,45.3,41.8,43.0,40.2,38.0,91,81,68,30.00,0.00,15,5,23,0.05
2014-11-2,52.4,45.4,38.9,40.0,37.2,34.0,84,74,55,30.14,30.00,14,6,26,0.00
2014-11-3,56.1,45.0,31.3,34.0,26.9,21.0,89,54,26,30.30,30.14,15,5,17,0.00
2014-11-4,61.2,52.4,44.4,27.0,22.3,19.0,43,32,20,30.34,30.22,16,7,20,0.00
2014-11-5,69.9,58.9,42.3,30.0,22.6,15.0,47,25,18,30.27,30.15,16,7,22,0.00
2014-11-6,69.0,55.2,42.5,33.0,28.9,24.0,56,38,25,30.26,30.16,10,3,13,0.00
2014-11-7,72.7,56.3,38.9,36.0,30.4,27.0,71,41,20,30.22,30.09,6,2,10,0.00
2014-11-8,74.3,59.4,46.5,32.0,29.7,26.0,54,34,20,30.18,30.04,8,3,14,0.00
2014-11-9,78.9,60.1,38.7,38.0,31.7,27.0,71,39,15,30.07,29.82,13,5,23,0.00
2014-11-10,66.3,57.8,47.9,48.0,38.5,29.0,92,52,26,29.82,29.73,25,13,35,0.00
2014-11-11,53.8,50.4,47.7,47.0,45.5,43.0,93,83,73,29.93,29.81,30,16,34,0.00
2014-11-12,60.1,51.7,47.6,46.0,44.3,42.0,87,77,55,29.99,29.91,30,14,31,0.00
2014-11-13,62.4,52.9,47.7,49.0,46.7,44.0,91,80,61,30.06,29.98,22,11,31,0.00
2014-11-14,61.6,53.3,43.3,47.0,42.1,33.0,85,67,52,30.03,29.95,19,6,30,0.00
2014-11-15,62.9,50.6,42.1,42.0,36.5,22.0,76,61,23,30.11,30.00,20,5,24,0.00
2014-11-16,53.1,47.0,40.4,38.0,9.3,-9.0,71,29,8,30.32,30.10,24,9,32,0.00
2014-11-17,56.1,48.1,41.1,4.0,-1.9,-8.0,17,13,10,30.33,30.23,15,8,19,0.00
2014-11-18,57.5,47.9,37.3,14.0,7.6,1.0,38,20,15,30.32,30.20,16,7,20,0.00
2014-11-19,62.7,49.8,36.7,37.0,20.5,10.0,61,35,14,30.21,30.10,15,4,21,0.00
2014-11-20,57.1,51.1,40.9,47.0,41.7,36.0,89,72,51,30.11,29.94,19,6,24,0.00
2014-11-21,53.8,47.3,41.4,45.0,38.6,27.0,87,73,53,30.12,29.92,20,6,32,0.00
2014-11-22,64.0,53.1,40.4,46.0,37.2,26.0,83,57,35,30.14,30.02,28,6,34,0.00
2014-11-23,57.7,49.7,36.6,43.0,28.2,16.0,80,48,22,30.26,30.07,20,6,36,0.00
2014-11-24,59.1,47.1,29.9,25.0,17.7,12.0,70,34,18,30.47,30.26,18,5,20,0.00
2014-11-25,66.3,49.3,30.6,15.0,11.1,2.0,46,24,8,30.52,30.37,8,2,12,0.00
2014-11-26,68.5,49.2,32.9,19.0,15.2,12.0,46,28,13,30.43,30.31,10,3,14,0.00
2014-11-27,68.9,49.3,35.1,23.0,18.4,15.0,49,32,16,30.32,30.14,8,3,11,0.00
2014-11-28,73.5,54.1,33.9,26.0,21.3,17.0,51,31,14,30.14,29.93,14,4,22,0.00
2014-11-29,65.5,55.1,45.8,43.0,27.5,20.0,88,37,18,29.93,29.81,23,5,23,0.00
2014-11-30,50.8,48.7,46.6,48.0,45.2,42.0,93,88,81,30.12,29.82,27,10,34,0.13
2014-12-1,57.1,50.5,45.0,50.0,46.5,42.0,94,86,71,30.20,30.08,10,2,17,0.00
2014-12-2,48.4,46.6,44.5,46.0,44.4,42.0,96,92,80,30.10,29.93,7,2,8,1.54
2014-12-3,50.6,48.4,46.5,50.0,47.6,46.0,97,97,96,30.05,29.95,4,0,7,0.61
2014-12-4,55.4,48.9,40.7,49.0,46.1,39.0,97,90,78,30.09,29.97,19,5,22,0.00
2014-12-5,52.0,47.5,42.1,48.0,45.5,41.0,97,93,84,30.19,30.08,8,1,10,0.01
2014-12-6,56.4,47.5,39.3,51.0,44.4,38.0,97,89,72,30.31,30.18,5,2,10,0.01
2014-12-7,55.9,48.5,41.9,47.0,43.2,40.0,94,82,67,30.33,30.21,10,3,14,0.01
2014-12-8,57.9,48.4,37.6,44.0,40.5,35.0,92,75,57,30.25,30.15,11,3,12,0.00
2014-12-9,59.0,49.5,37.3,42.0,38.2,34.0,88,66,49,30.25,30.11,10,3,13,0.00
2014-12-10,61.4,51.3,40.1,39.0,36.1,33.0,78,58,36,30.12,29.96,11,2,16,0.00
2014-12-11,53.6,51.0,48.4,47.0,43.3,36.0,90,76,53,29.97,29.79,25,8,43,0.19
2014-12-12,50.8,43.4,38.5,47.0,41.4,36.0,96,93,82,30.08,29.70,26,5,42,2.55
2014-12-13,46.2,40.4,31.5,37.0,33.9,28.0,90,78,62,30.20,30.08,12,4,24,0.00
2014-12-14,48.7,36.5,28.0,35.0,30.6,26.0,93,81,56,30.24,30.14,5,1,7,0.00
2014-12-15,47.3,39.0,29.5,40.0,33.6,28.0,94,81,64,30.19,30.06,6,1,12,0.01
2014-12-16,50.3,44.0,40.4,45.0,41.1,38.0,93,89,81,30.08,29.99,8,1,15,0.05
2014-12-17,46.7,42.1,34.7,42.0,36.2,30.0,93,80,68,30.15,29.95,13,3,23,0.45
2014-12-18,49.3,37.6,31.4,37.0,30.7,29.0,92,70,57,30.30,30.13,8,1,9,0.00
2014-12-19,52.5,41.1,30.5,41.0,35.8,29.0,94,81,59,30.32,30.20,13,3,19,0.01
2014-12-20,54.1,48.3,40.3,46.0,42.5,37.0,91,81,69,30.24,30.12,31,5,43,0.00
2014-12-21,57.8,51.2,45.7,46.0,43.7,39.0,85,76,64,30.20,30.10,25,8,37,0.00
2014-12-22,64.4,45.7,50.3,46.0,32.1,35.0,80,44,36,30.15,30.03,31,7,42,0.00
2014-12-23,60.8,44.2,45.3,42.0,32.1,36.0,80,48,44,30.22,30.11,17,5,17,0.00
2014-12-24,62.0,44.2,33.7,41.0,31.5,31.0,90,54,35,30.18,29.81,22,6,33,0.00
2014-12-25,40.7,34.2,34.2,36.0,23.3,20.0,85,58,45,30.05,29.78,40,10,51,0.00
2014-12-26,42.2,35.3,27.5,23.0,16.8,13.0,76,48,32,30.34,30.05,14,5,21,0.00
2014-12-27,40.7,33.1,25.7,17.0,14.4,13.0,68,47,32,30.50,30.34,14,7,20,0.00
2014-12-28,55.2,37.4,22.4,24.0,18.0,13.0,77,49,25,30.42,30.23,11,3,16,0.00
2014-12-29,59.0,47.2,40.0,37.0,23.2,-13.0,87,47,5,30.22,29.98,24,8,29,0.00
2014-12-30,43.2,38.4,32.6,37.0,23.6,9.0,88,58,33,30.03,29.92,21,8,34,0.00
2014-12-31,38.3,26.6,21.1,17.0,6.9,4.0,68,34,27,30.14,30.02,15,5,24,0.00
2015-1-1,47.4,29.8,14.9,13.0,7.7,0.0,75,44,15,30.27,30.14,7,2,10,0.00
2015-1-2,48.9,31.6,17.8,15.0,9.8,5.0,70,44,19,30.29,30.16,5,2,9,0.00